Time;durP1;ratioP1;P1;durP2;ratioP2;P2;SDS_P1;SDS_P2;PMS_P1;PMS_P2;Temp;Humidity;BMP_temperature;BMP_pressure;BME280_temperature;BME280_humidity;BME280_pressure;Samples;Min_cycle;Max_cycle;Signal;HPM_P1;HPM_P2
2022/01/26 00:06:35;;;;;;;;;;;16.30;50.90;;;;;;4908395;28;90757;-77
2022/01/26 00:09:01;;;;;;;63.78;53.63;;;16.30;51.10;;;;;;4912224;28;90833;-77
2022/01/26 00:11:30;;;;;;;64.13;53.20;;;16.30;51.30;;;;;;4926067;28;86864;-78
2022/01/26 00:13:58;;;;;;;62.80;52.78;;;16.30;51.20;;;;;;4913918;28;85301;-77
2022/01/26 00:16:27;;;;;;;63.75;53.40;;;16.30;51.20;;;;;;4937803;28;85628;-78
2022/01/26 00:18:57;;;;;;;62.15;53.28;;;16.30;51.00;;;;;;4919470;28;90645;-77
2022/01/26 00:21:30;;;;;;;63.42;53.13;;;16.30;51.10;;;;;;4916789;28;85268;-77
2022/01/26 00:26:36;;;;;;;65.18;53.75;;;16.20;51.10;;;;;;4919779;28;86331;-77
2022/01/26 00:29:12;;;;;;;65.03;54.03;;;16.20;51.20;;;;;;4915928;28;85447;-77
2022/01/26 00:40:00;;;;;;;64.97;53.75;;;16.20;51.10;;;;;;4918768;28;94298;-77
2022/01/26 00:42:31;;;;;;;65.70;54.50;;;16.10;51.10;;;;;;4920266;28;88084;-77
2022/01/26 00:44:57;;;;;;;63.97;53.38;;;16.20;51.10;;;;;;4913715;28;85380;-77
2022/01/26 00:47:22;;;;;;;62.30;53.08;;;16.20;51.10;;;;;;4917295;28;86164;-77
2022/01/26 00:49:50;;;;;;;62.17;53.10;;;16.20;51.20;;;;;;4914878;28;86225;-77
2022/01/26 00:52:25;;;;;;;62.78;53.13;;;16.10;51.00;;;;;;4914462;28;87135;-77
2022/01/26 00:54:51;;;;;;;67.18;54.47;;;16.20;51.30;;;;;;4919575;28;88697;-77
2022/01/26 00:57:16;;;;;;;65.55;53.78;;;16.20;51.10;;;;;;4924833;28;85451;-77
2022/01/26 00:59:42;;;;;;;63.22;53.03;;;16.20;51.70;;;;;;4922400;28;86843;-77
2022/01/26 01:02:08;;;;;;;63.97;54.38;;;16.10;50.90;;;;;;4917609;28;86885;-77
2022/01/26 01:04:33;;;;;;;64.53;53.70;;;16.10;50.90;;;;;;4919694;28;85242;-78
2022/01/26 01:07:02;;;;;;;63.55;53.45;;;16.10;51.00;;;;;;4926403;28;85653;-78
2022/01/26 01:09:32;;;;;;;63.78;53.60;;;16.10;51.20;;;;;;4919100;28;85945;-77
2022/01/26 01:12:01;;;;;;;65.65;54.15;;;16.10;50.90;;;;;;4923361;28;86698;-77
2022/01/26 01:14:26;;;;;;;65.82;54.47;;;16.10;51.00;;;;;;4919779;28;87650;-77
2022/01/26 01:16:54;;;;;;;64.40;53.85;;;16.10;51.00;;;;;;4924277;28;85376;-78
2022/01/26 01:19:36;;;;;;;64.60;53.60;;;16.00;51.00;;;;;;4920937;28;86673;-77
2022/01/26 01:22:28;;;;;;;63.90;53.65;;;16.10;51.20;;;;;;4918640;28;86561;-77
2022/01/26 01:30:02;;;;;;;64.78;54.47;;;16.00;51.10;;;;;;5026807;23;85100;-77
2022/01/26 01:33:19;;;;;;;64.03;54.03;;;16.00;51.00;;;;;;4953504;28;86907;-77
2022/01/26 01:36:17;;;;;;;63.75;53.85;;;15.90;51.20;;;;;;4965667;28;85576;-77
2022/01/26 01:39:53;;;;;;;64.97;54.30;;;16.00;51.10;;;;;;4962436;28;85360;-77
2022/01/26 01:43:02;;;;;;;66.18;54.10;;;15.90;51.30;;;;;;4937874;28;86369;-75
2022/01/26 01:46:20;;;;;;;64.72;54.22;;;16.00;51.30;;;;;;4924880;28;85319;-75
2022/01/26 01:49:38;;;;;;;65.47;54.25;;;15.90;51.10;;;;;;4923691;28;90676;-75
2022/01/26 01:53:04;;;;;;;63.83;53.92;;;15.90;51.20;;;;;;4944608;28;89291;-78
2022/01/26 01:56:01;;;;;;;65.50;54.45;;;15.90;51.20;;;;;;4896735;28;87173;-77
2022/01/26 02:01:34;;;;;;;64.82;54.67;;;16.00;51.30;;;;;;4954529;28;85765;-78
2022/01/26 02:04:26;;;;;;;64.40;54.47;;;16.00;51.30;;;;;;4967699;28;86159;-77
2022/01/26 02:07:09;;;;;;;65.13;54.08;;;16.00;51.20;;;;;;4950233;28;85643;-78
2022/01/26 02:13:15;;;;;;;64.35;54.47;;;16.00;51.20;;;;;;4946180;28;86047;-77
2022/01/26 02:52:31;;;;;;;64.55;54.25;;;15.90;51.30;;;;;;4997619;28;86016;-77
2022/01/26 03:00:49;;;;;;;66.32;54.58;;;15.90;51.10;;;;;;4996444;28;86017;-77
2022/01/26 03:03:26;;;;;;;64.20;54.35;;;15.90;51.30;;;;;;4976892;28;86090;-77
2022/01/26 03:06:06;;;;;;;66.13;54.70;;;15.90;51.30;;;;;;4988947;28;85467;-78
2022/01/26 03:08:47;;;;;;;66.00;54.42;;;15.80;51.40;;;;;;4977010;28;88159;-77
2022/01/26 03:11:19;;;;;;;67.55;55.22;;;15.90;51.40;;;;;;5000921;28;85692;-77
2022/01/26 03:13:57;;;;;;;64.68;54.95;;;15.80;51.50;;;;;;4996726;28;85640;-77
2022/01/26 03:16:41;;;;;;;64.18;54.05;;;15.80;51.40;;;;;;4976662;28;86934;-76
2022/01/26 03:22:21;;;;;;;62.47;54.03;;;15.80;51.30;;;;;;4994391;28;86340;-76
2022/01/26 03:36:14;;;;;;;64.53;54.42;;;15.70;51.50;;;;;;4998619;28;86934;-76
2022/01/26 03:38:50;;;;;;;66.05;53.92;;;15.70;51.40;;;;;;4997178;28;90530;-76
2022/01/26 03:44:21;;;;;;;65.35;55.10;;;15.70;51.50;;;;;;4986649;28;86350;-76
2022/01/26 03:46:51;;;;;;;66.53;54.85;;;15.70;51.40;;;;;;4991491;28;86263;-76
2022/01/26 03:49:34;;;;;;;66.85;55.20;;;15.70;51.30;;;;;;4999603;28;85506;-76
2022/01/26 03:52:30;;;;;;;65.22;54.55;;;15.70;51.50;;;;;;4994757;28;87001;-76
2022/01/26 03:55:05;;;;;;;66.38;55.05;;;15.70;51.40;;;;;;5001839;28;86107;-76
2022/01/26 03:58:20;;;;;;;67.53;55.17;;;15.70;51.60;;;;;;4999504;28;86526;-76
2022/01/26 04:07:21;;;;;;;64.65;55.30;;;15.70;51.50;;;;;;4876367;28;86286;-76
2022/01/26 04:10:03;;;;;;;;;;;15.70;51.50;;;;;;4965301;28;86413;-76
2022/01/26 04:13:08;;;;;;;64.40;53.67;;;15.80;51.50;;;;;;4959639;28;86160;-76
2022/01/26 04:15:49;;;;;;;;;;;;;;;;;;;;;
2022/01/26 04:18:22;;;;;;;;;;;15.70;51.40;;;;;;4998661;28;114880;-76
2022/01/26 04:27:16;;;;;;;66.10;54.72;;;15.70;51.60;;;;;;4990043;28;86436;-76
2022/01/26 04:29:51;;;;;;;66.88;54.67;;;15.70;51.60;;;;;;4991224;28;87691;-76
2022/01/26 04:36:05;;;;;;;;;;;;;;;;;;;;;
2022/01/26 04:38:45;;;;;;;65.20;54.92;;;15.60;51.50;;;;;;4968473;28;115537;-76
2022/01/26 04:41:45;;;;;;;64.20;54.05;;;15.70;51.60;;;;;;4995273;28;86578;-76
2022/01/26 04:44:35;;;;;;;;;;;;;;;;;;;;;
2022/01/26 04:50:23;;;;;;;65.80;55.20;;;15.70;51.70;;;;;;4999080;28;91963;-76
2022/01/26 04:52:52;;;;;;;65.80;54.88;;;15.60;51.40;;;;;;5006866;28;86203;-76
2022/01/26 04:55:33;;;;;;;64.90;54.78;;;15.60;51.60;;;;;;4992947;28;86908;-76
2022/01/26 04:58:38;;;;;;;;;;;;;;;;;;;;;
2022/01/26 05:01:10;;;;;;;65.80;54.45;;;15.70;51.70;;;;;;4991272;28;114531;-76
2022/01/26 05:03:35;;;;;;;66.43;55.13;;;15.70;51.60;;;;;;4990953;28;85588;-76
2022/01/26 05:06:18;;;;;;;65.47;55.13;;;15.80;51.60;;;;;;4977446;28;85878;-76
2022/01/26 05:09:02;;;;;;;66.55;55.72;;;15.90;51.60;;;;;;4970853;28;87376;-76
2022/01/26 05:14:42;;;;;;;66.17;54.67;;;16.20;51.40;;;;;;4993836;28;86254;-76
2022/01/26 05:17:28;;;;;;;71.80;55.65;;;16.40;51.20;;;;;;4998556;28;85522;-76
2022/01/26 05:20:03;;;;;;;68.05;55.85;;;16.50;51.20;;;;;;4982256;28;87829;-76
2022/01/26 05:22:44;;;;;;;66.72;55.40;;;16.60;50.50;;;;;;4998423;28;86289;-76
2022/01/26 05:25:34;;;;;;;67.22;55.60;;;16.60;50.20;;;;;;5002814;28;85673;-76
2022/01/26 05:28:00;;;;;;;68.63;55.35;;;16.70;50.10;;;;;;4998707;28;85800;-76
2022/01/26 05:30:34;;;;;;;65.20;55.30;;;16.90;49.70;;;;;;4993461;28;85880;-76
2022/01/26 05:33:42;;;;;;;68.00;55.75;;;17.00;49.50;;;;;;4997206;28;87296;-76
2022/01/26 05:36:10;;;;;;;66.72;55.75;;;17.00;49.50;;;;;;4977608;28;87253;-76
2022/01/26 05:41:28;;;;;;;66.25;55.60;;;17.10;48.90;;;;;;5000332;28;85825;-76
2022/01/26 05:44:15;;;;;;;67.93;55.88;;;17.10;49.10;;;;;;4984660;28;87329;-76
2022/01/26 05:46:50;;;;;;;65.53;55.63;;;17.10;49.10;;;;;;4979574;28;87047;-76
2022/01/26 05:49:45;;;;;;;66.65;55.08;;;17.10;49.10;;;;;;5004452;28;85477;-77
2022/01/26 05:52:52;;;;;;;68.55;55.60;;;17.10;48.90;;;;;;4984201;28;86402;-77
2022/01/26 05:59:24;;;;;;;66.65;55.17;;;17.10;49.20;;;;;;4954144;28;86764;-79
2022/01/26 06:02:02;;;;;;;68.32;55.63;;;17.20;49.30;;;;;;4948456;28;86078;-76
2022/01/26 06:04:34;;;;;;;69.28;55.08;;;17.30;49.70;;;;;;4997282;28;86537;-77
2022/01/26 06:07:05;;;;;;;69.15;56.08;;;17.30;49.90;;;;;;4996178;28;88016;-77
2022/01/26 06:09:33;;;;;;;68.53;56.30;;;17.20;50.30;;;;;;4995567;28;89933;-76
2022/01/26 06:11:59;;;;;;;67.03;55.40;;;17.30;50.20;;;;;;5000335;28;85478;-75
2022/01/26 06:14:24;;;;;;;66.97;55.33;;;17.20;50.20;;;;;;4977120;28;86383;-75
2022/01/26 06:16:59;;;;;;;60.17;49.90;;;17.20;50.30;;;;;;513320;28;10107496;-75
2022/01/26 06:19:24;;;;;;;68.38;54.15;;;17.20;50.30;;;;;;5007865;27;85682;-77
2022/01/26 06:21:50;;;;;;;68.20;55.42;;;17.30;50.40;;;;;;5007991;27;86193;-77
2022/01/26 06:24:16;;;;;;;69.82;55.20;;;17.30;50.40;;;;;;4990911;27;87423;-73
2022/01/26 06:26:42;;;;;;;69.72;55.42;;;17.30;50.10;;;;;;5008325;27;87517;-76
2022/01/26 06:29:07;;;;;;;68.15;54.72;;;17.30;50.60;;;;;;5016773;27;85186;-77
2022/01/26 06:31:34;;;;;;;66.43;55.22;;;17.20;50.60;;;;;;5008796;27;85627;-76
2022/01/26 06:34:02;;;;;;;73.10;56.28;;;17.20;50.40;;;;;;5007756;27;86193;-76
2022/01/26 06:36:28;;;;;;;69.00;55.35;;;17.10;50.30;;;;;;4999037;27;86962;-77
2022/01/26 06:38:54;;;;;;;70.68;56.88;;;17.10;50.50;;;;;;5014169;27;85584;-75
2022/01/26 06:41:25;;;;;;;75.50;56.85;;;17.00;51.70;;;;;;5018691;27;85501;-77
2022/01/26 06:43:59;;;;;;;78.57;57.45;;;17.10;51.30;;;;;;5006658;27;86161;-75
2022/01/26 06:46:42;;;;;;;73.65;58.03;;;17.20;51.50;;;;;;5018969;27;86166;-75
2022/01/26 06:51:52;;;;;;;89.15;58.47;;;17.20;50.90;;;;;;5015345;27;85852;-75
2022/01/26 06:54:18;;;;;;;78.30;57.40;;;17.30;50.60;;;;;;5017701;28;89581;-75
2022/01/26 06:56:45;;;;;;;74.57;56.83;;;17.20;50.50;;;;;;5004649;27;85646;-76
2022/01/26 06:59:11;;;;;;;76.00;58.25;;;17.20;50.50;;;;;;4981389;27;87786;-76
2022/01/26 07:01:37;;;;;;;72.03;56.55;;;17.20;50.60;;;;;;5003515;27;85695;-76
2022/01/26 07:04:03;;;;;;;75.57;57.28;;;17.20;50.50;;;;;;5000988;27;89219;-76
2022/01/26 07:06:29;;;;;;;72.93;57.80;;;17.10;50.60;;;;;;4967565;27;88162;-75
2022/01/26 07:08:55;;;;;;;77.25;57.65;;;17.20;50.60;;;;;;4969364;27;87867;-75
2022/01/26 07:11:20;;;;;;;76.80;58.40;;;17.30;50.70;;;;;;5013055;27;86305;-76
2022/01/26 07:13:46;;;;;;;76.20;57.15;;;17.30;50.80;;;;;;5007835;27;86750;-75
2022/01/26 07:21:41;;;;;;;81.47;57.78;;;17.40;50.40;;;;;;5009144;27;85865;-76
2022/01/26 07:24:07;;;;;;;75.15;56.47;;;17.40;50.40;;;;;;5011725;27;90953;-79
2022/01/26 07:26:34;;;;;;;78.65;58.30;;;17.30;50.90;;;;;;5015724;27;85905;-76
2022/01/26 07:29:11;;;;;;;79.32;58.92;;;17.30;51.10;;;;;;5006540;27;87172;-74
2022/01/26 07:31:42;;;;;;;76.80;57.70;;;17.20;51.10;;;;;;5016720;27;85123;-74
2022/01/26 07:34:10;;;;;;;80.23;57.57;;;17.30;51.40;;;;;;5014561;27;86170;-77
2022/01/26 07:36:36;;;;;;;83.30;58.03;;;17.20;51.30;;;;;;5013322;27;85987;-76
2022/01/26 07:39:07;;;;;;;81.22;59.50;;;17.30;51.70;;;;;;5019681;27;86174;-75
2022/01/26 07:41:33;;;;;;;;;;;17.30;52.00;;;;;;5022766;27;85596;-75
2022/01/26 07:43:59;;;;;;;78.50;58.20;;;17.30;51.70;;;;;;5020461;27;86118;-75
2022/01/26 07:46:25;;;;;;;76.60;58.22;;;17.40;51.70;;;;;;5012978;27;85564;-75
2022/01/26 07:48:51;;;;;;;76.82;58.20;;;17.40;51.60;;;;;;5015046;27;86388;-76
2022/01/26 07:51:16;;;;;;;79.90;59.20;;;17.40;51.60;;;;;;5020158;27;86369;-75
2022/01/26 07:53:44;;;;;;;74.68;58.45;;;17.40;51.40;;;;;;5018299;27;86852;-75
2022/01/26 07:56:10;;;;;;;83.65;58.67;;;17.40;51.40;;;;;;5020642;27;86628;-76
2022/01/26 07:58:35;;;;;;;75.43;58.17;;;17.40;51.30;;;;;;5003735;28;91025;-77
2022/01/26 08:01:01;;;;;;;73.90;57.45;;;17.40;50.60;;;;;;4992673;27;88209;-76
2022/01/26 08:03:33;;;;;;;75.07;57.97;;;17.40;51.00;;;;;;4990404;27;89708;-76
2022/01/26 08:05:59;;;;;;;75.30;57.95;;;17.40;51.20;;;;;;5016798;27;86390;-76
2022/01/26 08:08:26;;;;;;;80.80;58.60;;;17.30;50.90;;;;;;5001290;27;86763;-76
2022/01/26 08:10:51;;;;;;;82.20;59.00;;;17.30;50.90;;;;;;5007562;27;89644;-76
2022/01/26 08:13:17;;;;;;;74.43;57.72;;;17.30;51.50;;;;;;5008158;27;91188;-76
2022/01/26 08:15:42;;;;;;;78.68;58.70;;;17.30;51.90;;;;;;5019312;27;86223;-76
2022/01/26 08:18:08;;;;;;;75.28;57.88;;;17.30;51.50;;;;;;5012607;27;85606;-75
2022/01/26 08:20:34;;;;;;;76.40;57.80;;;17.40;51.70;;;;;;5023065;27;85270;-77
2022/01/26 08:22:59;;;;;;;78.35;58.00;;;17.40;51.80;;;;;;4998920;27;86672;-77
2022/01/26 08:25:25;;;;;;;75.88;57.65;;;17.40;51.10;;;;;;5009998;27;86242;-77
2022/01/26 08:27:57;;;;;;;76.78;58.03;;;17.40;51.60;;;;;;5021618;27;89515;-77
2022/01/26 08:30:23;;;;;;;77.88;58.08;;;17.40;51.20;;;;;;5015840;27;85860;-77
2022/01/26 08:32:49;;;;;;;73.18;57.70;;;17.30;51.10;;;;;;5019124;27;85950;-76
2022/01/26 08:35:15;;;;;;;75.00;59.08;;;17.20;51.10;;;;;;5013819;27;85922;-78
2022/01/26 08:37:41;;;;;;;76.68;58.08;;;17.20;51.60;;;;;;5024056;27;85081;-77
2022/01/26 08:40:07;;;;;;;78.10;58.85;;;17.20;51.40;;;;;;5023437;27;86458;-76
2022/01/26 08:42:33;;;;;;;76.72;59.15;;;17.30;51.10;;;;;;5008598;27;88152;-75
2022/01/26 08:44:59;;;;;;;77.10;58.97;;;17.30;51.00;;;;;;5013851;27;90863;-76
2022/01/26 08:47:24;;;;;;;74.72;57.92;;;17.30;50.70;;;;;;5018575;27;85083;-76
2022/01/26 08:49:50;;;;;;;80.57;58.67;;;17.30;51.20;;;;;;5008703;27;85735;-77
2022/01/26 08:52:16;;;;;;;80.15;59.53;;;17.30;51.40;;;;;;4993606;28;86821;-76
2022/01/26 08:54:42;;;;;;;78.47;58.53;;;17.30;51.30;;;;;;5001877;27;87983;-76
2022/01/26 08:57:08;;;;;;;78.88;58.08;;;17.30;50.70;;;;;;4992186;28;91564;-76
2022/01/26 08:59:34;;;;;;;80.88;58.80;;;17.30;50.90;;;;;;5011601;27;87146;-77
2022/01/26 09:02:00;;;;;;;81.90;58.90;;;17.30;50.60;;;;;;5007047;27;86235;-77
2022/01/26 09:04:26;;;;;;;74.80;59.60;;;17.30;51.00;;;;;;5016503;27;89256;-77
2022/01/26 09:07:01;;;;;;;74.70;59.13;;;17.30;51.10;;;;;;5020690;27;86310;-76
2022/01/26 09:09:30;;;;;;;76.95;59.63;;;17.30;51.20;;;;;;5019486;27;86661;-76
2022/01/26 09:11:58;;;;;;;78.82;59.05;;;17.30;51.10;;;;;;5018530;27;86360;-76
2022/01/26 09:14:27;;;;;;;75.60;60.15;;;17.30;50.60;;;;;;5016758;27;89690;-77
2022/01/26 09:16:54;;;;;;;74.95;59.97;;;17.30;50.90;;;;;;5017778;27;86682;-76
2022/01/26 09:19:32;;;;;;;80.95;59.53;;;17.20;51.10;;;;;;5008551;27;87788;-76
2022/01/26 09:22:12;;;;;;;75.80;59.13;;;17.30;50.80;;;;;;4994656;27;86479;-77
2022/01/26 09:24:39;;;;;;;79.70;59.83;;;17.40;51.00;;;;;;5013809;27;87257;-77
2022/01/26 09:27:07;;;;;;;76.57;59.70;;;17.40;51.10;;;;;;5012935;27;85956;-76
2022/01/26 09:29:34;;;;;;;72.60;58.47;;;17.40;51.00;;;;;;4990236;27;91888;-76
2022/01/26 09:32:00;;;;;;;79.13;60.60;;;17.40;51.70;;;;;;5000739;27;87554;-77
2022/01/26 09:34:30;;;;;;;75.07;58.63;;;17.50;51.20;;;;;;5003313;27;86624;-77
2022/01/26 09:36:56;;;;;;;72.18;58.45;;;17.60;50.80;;;;;;5006496;27;87158;-77
2022/01/26 09:39:23;;;;;;;74.97;59.95;;;17.70;50.80;;;;;;5015757;27;85687;-77
2022/01/26 09:41:50;;;;;;;73.95;58.97;;;17.70;50.50;;;;;;4998929;27;85685;-75
2022/01/26 09:44:18;;;;;;;79.53;60.38;;;17.70;50.00;;;;;;5005971;27;90156;-76
2022/01/26 09:46:44;;;;;;;81.25;60.20;;;17.80;50.20;;;;;;4994347;27;85885;-75
2022/01/26 09:49:10;;;;;;;79.05;61.17;;;17.80;50.20;;;;;;4963514;27;88562;-76
2022/01/26 09:51:42;;;;;;;80.65;59.40;;;17.90;50.20;;;;;;5000427;27;85928;-76
2022/01/26 09:54:14;;;;;;;80.78;60.03;;;18.00;50.30;;;;;;4986106;28;88457;-76
2022/01/26 09:56:40;;;;;;;80.97;59.85;;;18.00;49.60;;;;;;4986839;28;85610;-76
2022/01/26 09:59:06;;;;;;;81.97;60.38;;;18.10;49.60;;;;;;5006266;27;85927;-76
2022/01/26 10:01:47;;;;;;;80.50;60.97;;;18.00;49.60;;;;;;5007974;27;87525;-77
2022/01/26 10:04:24;;;;;;;75.47;59.33;;;18.00;49.60;;;;;;5005461;27;90203;-76
2022/01/26 10:18:00;;;;;;;77.85;60.28;;;18.10;49.10;;;;;;4987885;28;86283;-75
2022/01/26 10:20:25;;;;;;;76.35;59.67;;;18.10;49.60;;;;;;4979025;28;85547;-75
2022/01/26 10:22:51;;;;;;;77.78;59.28;;;18.20;49.50;;;;;;4971426;28;87363;-76
2022/01/26 10:25:19;;;;;;;75.95;60.63;;;18.10;49.60;;;;;;4995408;28;85945;-76
2022/01/26 10:27:49;;;;;;;79.95;59.10;;;18.10;49.50;;;;;;4977355;28;89156;-78
2022/01/26 10:30:20;;;;;;;76.10;59.55;;;18.10;49.50;;;;;;4964314;28;86251;-77
2022/01/26 10:32:46;;;;;;;79.82;60.42;;;18.10;49.40;;;;;;4977166;28;86377;-76
2022/01/26 10:35:14;;;;;;;75.25;60.78;;;18.10;49.20;;;;;;4984596;28;85951;-77
2022/01/26 10:37:54;;;;;;;74.78;59.88;;;18.10;49.10;;;;;;4986332;28;85634;-76
2022/01/26 10:40:24;;;;;;;76.20;59.78;;;18.10;49.00;;;;;;4979977;28;87505;-77
2022/01/26 10:43:05;;;;;;;73.97;59.10;;;18.00;49.20;;;;;;4970758;28;87373;-76
2022/01/26 10:45:44;;;;;;;74.73;59.33;;;18.10;49.30;;;;;;4984457;28;91645;-75
2022/01/26 10:48:21;;;;;;;75.68;59.15;;;18.10;49.00;;;;;;4986089;28;85703;-76
2022/01/26 10:51:19;;;;;;;74.70;59.65;;;18.00;49.10;;;;;;4989032;28;87604;-77
2022/01/26 10:53:39;;;;;;;76.70;59.95;;;18.00;49.00;;;;;;4972275;28;85699;-76
2022/01/26 10:56:06;;;;;;;73.70;58.05;;;18.00;49.20;;;;;;4992005;28;86133;-77
2022/01/26 10:58:32;;;;;;;76.32;59.13;;;18.00;49.50;;;;;;4973369;28;86699;-76
2022/01/26 11:00:58;;;;;;;78.75;59.10;;;18.00;49.60;;;;;;4979058;28;86430;-76
2022/01/26 11:03:24;;;;;;;71.75;58.80;;;17.90;49.40;;;;;;4986002;28;87454;-76
2022/01/26 11:05:50;;;;;;;73.05;58.67;;;18.00;49.60;;;;;;4998338;28;85639;-77
2022/01/26 11:08:17;;;;;;;73.20;58.53;;;17.90;49.50;;;;;;4993480;28;85637;-77
2022/01/26 11:10:47;;;;;;;74.55;58.75;;;18.00;49.60;;;;;;5003299;28;85395;-77
2022/01/26 11:13:30;;;;;;;72.25;58.53;;;18.00;49.50;;;;;;4976675;28;85950;-76
2022/01/26 11:16:11;;;;;;;72.13;57.30;;;18.00;49.80;;;;;;4992383;28;85473;-76
2022/01/26 11:18:53;;;;;;;71.65;58.55;;;18.00;49.30;;;;;;4992603;28;85399;-76
2022/01/26 11:21:26;;;;;;;71.18;57.08;;;17.90;48.70;;;;;;4992932;28;87133;-76
2022/01/26 11:24:07;;;;;;;72.30;57.80;;;17.90;48.70;;;;;;4996085;28;87141;-73
2022/01/26 11:26:34;;;;;;;67.85;56.15;;;17.90;48.90;;;;;;4989680;28;87277;-77
2022/01/26 11:29:00;;;;;;;73.38;57.50;;;18.00;49.00;;;;;;4996933;28;85775;-76
2022/01/26 11:31:27;;;;;;;74.20;57.78;;;18.00;48.90;;;;;;4987766;28;85763;-77
2022/01/26 11:33:54;;;;;;;71.25;57.28;;;17.90;48.80;;;;;;4974857;28;90822;-77
2022/01/26 11:36:21;;;;;;;70.95;57.50;;;17.90;49.10;;;;;;4996758;28;86001;-76
2022/01/26 11:47:01;;;;;;;76.63;57.75;;;17.70;49.10;;;;;;4991887;28;85381;-75
2022/01/26 11:49:34;;;;;;;75.10;58.40;;;17.60;49.30;;;;;;4999121;28;85519;-76
2022/01/26 11:52:00;;;;;;;71.30;57.60;;;17.60;49.30;;;;;;4986527;28;85718;-75
2022/01/26 11:54:29;;;;;;;70.47;57.55;;;17.60;49.80;;;;;;4966364;28;90758;-78
2022/01/26 11:57:01;;;;;;;71.40;57.53;;;17.60;49.80;;;;;;4993412;28;86804;-75
2022/01/26 11:59:29;;;;;;;75.22;58.10;;;17.70;50.60;;;;;;4995948;28;85662;-73
2022/01/26 12:02:01;;;;;;;71.57;57.80;;;17.80;49.80;;;;;;4993470;28;86693;-74
2022/01/26 12:04:31;;;;;;;79.13;57.90;;;17.80;49.70;;;;;;4975513;28;86332;-75
2022/01/26 12:07:10;;;;;;;75.50;57.55;;;17.90;49.50;;;;;;4982849;28;85583;-75
2022/01/26 12:09:39;;;;;;;72.63;57.17;;;18.00;48.70;;;;;;4964184;28;93008;-76
2022/01/26 12:12:06;;;;;;;74.82;57.10;;;18.00;48.70;;;;;;4986914;28;87283;-77
2022/01/26 12:14:34;;;;;;;74.53;58.53;;;18.10;48.60;;;;;;5001107;28;85422;-77
2022/01/26 12:17:03;;;;;;;75.07;57.42;;;18.10;48.70;;;;;;4969188;28;89854;-78
2022/01/26 12:34:04;;;;;;;72.88;55.97;;;18.60;47.80;;;;;;4998706;28;85925;-77
2022/01/26 12:39:09;;;;;;;72.00;56.38;;;18.70;47.50;;;;;;4998806;28;85606;-77
2022/01/26 12:41:38;;;;;;;73.57;56.55;;;18.70;47.30;;;;;;4980853;28;86317;-77
2022/01/26 12:44:08;;;;;;;72.95;56.78;;;18.90;47.80;;;;;;5003277;28;85579;-76
2022/01/26 12:46:36;;;;;;;72.32;56.33;;;18.90;47.00;;;;;;4989097;28;86570;-78
2022/01/26 12:49:14;;;;;;;69.28;55.65;;;18.90;47.00;;;;;;4983772;28;90621;-77
2022/01/26 12:51:48;;;;;;;72.68;55.90;;;18.90;47.00;;;;;;4986870;28;85717;-77
2022/01/26 12:54:15;;;;;;;71.30;56.13;;;18.80;47.00;;;;;;4980072;28;90958;-78
2022/01/26 12:56:42;;;;;;;69.95;55.80;;;18.80;47.20;;;;;;4953481;28;87408;-74
2022/01/26 12:59:17;;;;;;;69.85;55.67;;;18.90;47.00;;;;;;4998040;27;85408;-77
2022/01/26 13:01:45;;;;;;;74.18;56.83;;;19.00;47.40;;;;;;4988303;28;85435;-77
2022/01/26 13:04:18;;;;;;;73.07;57.53;;;18.90;47.10;;;;;;4992629;28;85858;-77
2022/01/26 13:06:51;;;;;;;71.55;56.63;;;18.90;47.20;;;;;;4976687;28;88584;-76
2022/01/26 13:09:18;;;;;;;74.68;57.70;;;18.80;47.20;;;;;;4993081;28;90776;-75
2022/01/26 13:11:48;;;;;;;71.32;57.15;;;18.90;47.10;;;;;;4994863;28;85940;-76
2022/01/26 13:14:29;;;;;;;68.83;56.17;;;18.90;47.20;;;;;;4992519;28;88770;-75
2022/01/26 13:17:36;;;;;;;71.50;56.45;;;18.90;46.90;;;;;;4992236;28;86528;-76
2022/01/26 13:22:38;;;;;;;71.55;56.17;;;19.00;46.80;;;;;;5003068;28;84369;-77
2022/01/26 13:25:14;;;;;;;72.53;55.55;;;19.00;47.10;;;;;;4984029;28;85915;-77
2022/01/26 13:28:11;;;;;;;70.22;55.80;;;19.10;46.90;;;;;;4985550;28;87301;-76
2022/01/26 13:34:06;;;;;;;69.70;56.10;;;19.00;46.60;;;;;;4998175;28;86022;-77
2022/01/26 13:39:34;;;;;;;68.72;55.08;;;19.00;46.50;;;;;;4975693;28;86470;-77
2022/01/26 13:42:39;;;;;;;68.90;55.40;;;19.00;46.90;;;;;;3245797;27;10108099;-76
2022/01/26 13:52:53;;;;;;;69.55;55.53;;;19.20;46.70;;;;;;5001267;28;85970;-75
2022/01/26 14:00:18;;;;;;;69.95;54.97;;;19.20;46.70;;;;;;4979864;28;87110;-76
2022/01/26 14:02:49;;;;;;;68.13;54.58;;;19.20;47.10;;;;;;4974835;28;86649;-76
2022/01/26 14:05:15;;;;;;;73.75;54.92;;;19.30;47.20;;;;;;4973183;28;85531;-76
2022/01/26 14:07:40;;;;;;;68.00;54.65;;;19.30;47.40;;;;;;4982619;28;86533;-76
2022/01/26 14:10:07;;;;;;;68.70;54.78;;;19.40;46.90;;;;;;4996481;28;90351;-74
2022/01/26 14:12:38;;;;;;;70.28;54.58;;;19.40;47.00;;;;;;4975837;28;90249;-78
2022/01/26 14:15:07;;;;;;;70.25;54.75;;;19.40;47.10;;;;;;4995709;28;86399;-79
2022/01/26 14:20:16;;;;;;;67.15;54.60;;;19.40;47.00;;;;;;4984883;28;86532;-76
2022/01/26 14:25:30;;;;;;;68.90;54.40;;;19.50;46.80;;;;;;4979342;28;86628;-76
2022/01/26 14:28:04;;;;;;;70.75;54.05;;;19.50;46.90;;;;;;4983167;28;86023;-77
2022/01/26 14:36:05;;;;;;;70.18;55.15;;;19.40;46.80;;;;;;5000021;28;86243;-75
2022/01/26 15:20:52;;;;;;;69.20;54.25;;;19.50;46.80;;;;;;4969616;28;86097;-76
2022/01/26 15:50:46;;;;;;;67.32;54.38;;;19.30;46.30;;;;;;4994509;28;86077;-77
2022/01/26 15:58:45;;;;;;;69.22;54.58;;;19.10;46.60;;;;;;4994099;28;85352;-75
2022/01/26 16:18:02;;;;;;;70.75;54.25;;;18.90;46.50;;;;;;4986142;28;86124;-76
2022/01/26 18:39:28;;;;;;;74.00;58.63;;;17.70;51.30;;;;;;4984379;28;85632;-75
2022/01/26 18:49:45;;;;;;;71.75;55.65;;;17.80;52.00;;;;;;4987695;28;86756;-74
2022/01/26 18:52:11;;;;;;;77.50;56.13;;;17.90;51.80;;;;;;4971182;28;89118;-75
2022/01/26 18:54:39;;;;;;;72.38;55.35;;;17.90;51.30;;;;;;4997183;28;86955;-74
2022/01/26 18:57:09;;;;;;;70.10;56.33;;;18.00;51.50;;;;;;5001854;28;90373;-75
2022/01/26 18:59:37;;;;;;;74.80;56.40;;;18.00;51.50;;;;;;4991886;28;86741;-75
2022/01/26 19:02:03;;;;;;;73.80;56.65;;;18.10;51.50;;;;;;5006775;28;86064;-75
2022/01/26 19:04:46;;;;;;;73.80;56.03;;;18.00;51.20;;;;;;5005621;28;85527;-75
2022/01/26 19:07:12;;;;;;;75.07;55.15;;;18.00;51.20;;;;;;4984086;28;86372;-75
2022/01/26 19:09:42;;;;;;;68.60;55.55;;;18.00;51.30;;;;;;5002147;28;85959;-74
2022/01/26 19:12:12;;;;;;;72.60;55.20;;;18.00;51.50;;;;;;4988603;28;85940;-74
2022/01/26 19:14:41;;;;;;;70.25;54.85;;;18.00;51.30;;;;;;4994939;28;85929;-74
2022/01/26 19:17:20;;;;;;;67.63;54.88;;;18.00;51.50;;;;;;4996670;28;85793;-75
2022/01/26 19:25:26;;;;;;;72.28;54.90;;;18.00;50.80;;;;;;4998552;28;85497;-75
2022/01/26 19:51:09;;;;;;;65.35;53.97;;;17.90;50.50;;;;;;5000553;28;86019;-75
2022/01/26 19:53:35;;;;;;;66.30;54.20;;;17.90;51.10;;;;;;4993515;28;85574;-74
2022/01/26 19:56:01;;;;;;;64.97;53.08;;;17.90;51.20;;;;;;4998223;28;89943;-75
2022/01/26 19:58:27;;;;;;;67.70;53.95;;;17.90;51.00;;;;;;4979368;28;87521;-75
2022/01/26 20:00:53;;;;;;;63.42;53.72;;;17.90;50.80;;;;;;4988682;28;86573;-75
2022/01/26 20:03:21;;;;;;;65.57;53.80;;;17.80;50.90;;;;;;4992072;28;85365;-75
2022/01/26 20:05:48;;;;;;;64.63;53.28;;;17.80;51.00;;;;;;4999946;28;85937;-75
2022/01/26 20:08:31;;;;;;;66.95;53.67;;;17.80;51.30;;;;;;5002080;28;84999;-75
2022/01/26 20:11:01;;;;;;;64.32;53.15;;;17.80;51.00;;;;;;4992915;28;86810;-74
2022/01/26 20:13:33;;;;;;;63.97;53.47;;;17.80;51.40;;;;;;5000564;28;86743;-75
2022/01/26 20:16:00;;;;;;;65.97;53.17;;;17.80;51.00;;;;;;5001047;28;86556;-74
2022/01/26 20:18:27;;;;;;;63.83;52.92;;;17.80;51.00;;;;;;4990944;28;87446;-74
2022/01/26 20:21:09;;;;;;;65.05;52.35;;;17.80;51.10;;;;;;2096053;27;10106897;-75
2022/01/26 20:23:36;;;;;;;65.30;53.03;;;17.80;50.60;;;;;;3591340;28;10087029;-74
2022/01/26 20:26:05;;;;;;;66.28;53.30;;;17.80;51.00;;;;;;4992097;28;85210;-74
2022/01/26 20:28:35;;;;;;;64.68;52.50;;;17.80;50.80;;;;;;4995954;28;87038;-74
2022/01/26 20:31:02;;;;;;;63.25;53.75;;;17.80;51.00;;;;;;4985928;28;84985;-74
2022/01/26 20:33:28;;;;;;;63.85;52.97;;;17.80;50.90;;;;;;4997186;28;86591;-75
2022/01/26 20:35:54;;;;;;;67.43;53.70;;;17.80;50.90;;;;;;4993493;28;91724;-74
2022/01/26 20:38:20;;;;;;;64.68;53.00;;;17.80;51.10;;;;;;5001599;28;87634;-74
2022/01/26 20:40:45;;;;;;;64.78;53.00;;;17.80;51.60;;;;;;4998488;28;86406;-74
2022/01/26 20:43:12;;;;;;;64.45;53.28;;;17.80;51.40;;;;;;5004901;28;85779;-75